createdAt,value
2019-06-01T00:02:01.659Z,17.98
2019-06-01T00:04:31.809Z,17.93
2019-06-01T00:07:01.740Z,17.88
2019-06-01T00:09:31.687Z,17.88
2019-06-01T00:12:01.537Z,17.84
2019-06-01T00:14:31.414Z,17.79
2019-06-01T00:17:01.956Z,17.77
2019-06-01T00:19:31.821Z,17.70
2019-06-01T00:22:02.124Z,17.64
2019-06-01T00:24:32.073Z,17.58
2019-06-01T00:27:02.263Z,17.57
2019-06-01T00:29:32.193Z,17.59
2019-06-01T00:32:02.020Z,17.57
2019-06-01T00:34:32.033Z,17.52
2019-06-01T00:37:01.970Z,17.49
2019-06-01T00:39:33.230Z,17.45
2019-06-01T00:42:03.441Z,17.43
2019-06-01T00:44:33.653Z,17.42
2019-06-01T00:47:03.572Z,17.39
2019-06-01T00:49:33.512Z,17.35
2019-06-01T00:52:03.354Z,17.34
2019-06-01T00:54:33.621Z,17.38
2019-06-01T00:57:03.551Z,17.40
2019-06-01T00:59:33.758Z,17.40
2019-06-01T01:02:03.694Z,17.41
2019-06-01T01:04:33.569Z,17.40
2019-06-01T01:07:03.555Z,17.39
2019-06-01T01:09:33.515Z,17.35
2019-06-01T01:12:04.046Z,17.36
2019-06-01T01:14:33.896Z,17.38
2019-06-01T01:17:03.828Z,17.38
2019-06-01T01:19:33.758Z,17.41
2019-06-01T01:22:03.685Z,17.42
2019-06-01T01:24:33.876Z,17.42
2019-06-01T01:27:04.143Z,17.39
2019-06-01T01:29:34.012Z,17.37
2019-06-01T01:32:03.956Z,17.34
2019-06-01T01:34:34.095Z,17.32
2019-06-01T01:37:03.954Z,17.29
2019-06-01T01:39:33.733Z,17.26
2019-06-01T01:42:03.976Z,17.22
2019-06-01T01:44:33.853Z,17.21
2019-06-01T01:47:03.775Z,17.21
2019-06-01T01:49:33.744Z,17.20
2019-06-01T01:52:03.687Z,17.22
2019-06-01T01:54:33.573Z,17.22
2019-06-01T01:57:03.514Z,17.20
2019-06-01T01:59:33.455Z,17.15
2019-06-01T02:02:03.411Z,17.11
2019-06-01T02:04:33.344Z,17.05
2019-06-01T02:07:03.129Z,17.01
2019-06-01T02:09:33.004Z,17.00
2019-06-01T02:12:03.208Z,16.97
2019-06-01T02:14:32.991Z,16.96
2019-06-01T02:17:02.937Z,16.97
2019-06-01T02:19:32.689Z,16.96
2019-06-01T02:22:03.674Z,16.93
2019-06-01T02:24:34.686Z,16.91
2019-06-01T02:27:04.762Z,16.86
2019-06-01T02:29:34.629Z,16.83
2019-06-01T02:32:06.472Z,16.79
2019-06-01T02:34:36.634Z,16.78
2019-06-01T02:37:06.871Z,16.76
2019-06-01T02:39:36.698Z,16.73
2019-06-01T02:42:08.353Z,16.73
2019-06-01T02:44:38.150Z,16.74
2019-06-01T02:47:08.093Z,16.69
2019-06-01T02:49:38.032Z,16.67
2019-06-01T02:52:07.974Z,16.67
2019-06-01T02:54:38.110Z,16.68
2019-06-01T02:57:08.041Z,16.64
2019-06-01T02:59:37.823Z,16.65
2019-06-01T03:02:12.201Z,16.64
2019-06-01T03:04:40.206Z,16.65
2019-06-01T03:07:13.332Z,16.63
2019-06-01T03:09:44.672Z,16.60
2019-06-01T03:12:17.858Z,16.56
2019-06-01T03:14:49.638Z,16.53
2019-06-01T03:17:24.442Z,16.52
2019-06-01T03:19:57.022Z,16.55
2019-06-01T03:22:28.775Z,16.55
2019-06-01T03:25:02.040Z,16.52
2019-06-01T03:27:35.109Z,16.52
2019-06-01T03:30:09.774Z,16.51
2019-06-01T03:32:39.885Z,16.51
2019-06-01T03:35:09.792Z,16.50
2019-06-01T03:37:39.731Z,16.52
2019-06-01T03:40:19.517Z,16.51
2019-06-01T03:42:41.733Z,16.52
2019-06-01T03:45:13.053Z,16.55
2019-06-01T03:47:44.410Z,16.57
2019-06-01T03:50:14.452Z,16.57
2019-06-01T03:52:44.239Z,16.56
2019-06-01T03:55:14.177Z,16.57
2019-06-01T03:57:44.033Z,16.56
2019-06-01T04:00:14.154Z,16.54
2019-06-01T04:02:43.950Z,16.55
2019-06-01T04:05:13.891Z,16.55
2019-06-01T04:07:44.014Z,16.51
2019-06-01T04:10:14.586Z,16.50
2019-06-01T04:12:44.734Z,16.50
2019-06-01T04:15:16.814Z,16.50
2019-06-01T04:17:46.708Z,16.53
2019-06-01T04:20:16.651Z,16.56
2019-06-01T04:22:47.171Z,16.58
2019-06-01T04:25:16.951Z,16.60
2019-06-01T04:27:47.078Z,16.61
2019-06-01T04:30:17.001Z,16.59
2019-06-01T04:32:50.315Z,16.59
2019-06-01T04:35:18.278Z,16.60
2019-06-01T04:37:48.042Z,16.62
2019-06-01T04:40:17.994Z,16.63
2019-06-01T04:42:48.378Z,16.62
2019-06-01T04:45:19.091Z,16.63
2019-06-01T04:47:49.289Z,16.65
2019-06-01T04:50:19.535Z,16.67
2019-06-01T04:52:49.480Z,16.68
2019-06-01T04:55:19.413Z,16.71
2019-06-01T04:57:49.320Z,16.71
2019-06-01T05:00:27.650Z,16.73
2019-06-01T05:03:04.394Z,16.77
2019-06-01T05:05:23.011Z,16.81
2019-06-01T05:07:53.163Z,16.83
2019-06-01T05:10:23.251Z,16.87
2019-06-01T05:12:53.149Z,16.89
2019-06-01T05:15:23.096Z,16.94
2019-06-01T05:17:53.951Z,16.96
2019-06-01T05:20:24.170Z,16.97
2019-06-01T05:22:54.203Z,16.99
2019-06-01T05:25:24.147Z,17.01
2019-06-01T05:27:54.005Z,17.02
2019-06-01T05:30:23.944Z,17.04
2019-06-01T05:32:53.821Z,17.06
2019-06-01T05:35:23.762Z,17.09
2019-06-01T05:37:53.615Z,17.11
2019-06-01T05:40:23.556Z,17.14
2019-06-01T05:42:53.420Z,17.15
2019-06-01T05:45:23.415Z,17.17
2019-06-01T05:47:53.428Z,17.20
2019-06-01T05:50:23.627Z,17.24
2019-06-01T05:52:55.285Z,17.25
2019-06-01T05:55:30.141Z,17.29
2019-06-01T05:58:00.764Z,17.31
2019-06-01T06:00:42.629Z,17.34
2019-06-01T06:03:16.220Z,17.37
2019-06-01T06:05:45.039Z,17.40
2019-06-01T06:08:15.991Z,17.44
2019-06-01T06:10:47.070Z,17.47
2019-06-01T06:13:17.543Z,17.53
2019-06-01T06:15:47.914Z,17.54
2019-06-01T06:18:17.863Z,17.56
2019-06-01T06:20:47.960Z,17.61
2019-06-01T06:23:18.539Z,17.65
2019-06-01T06:25:48.435Z,17.68
2019-06-01T06:28:18.765Z,17.71
2019-06-01T06:30:48.814Z,17.74
2019-06-01T06:33:19.348Z,17.77
2019-06-01T06:35:50.730Z,17.80
2019-06-01T06:38:21.849Z,17.82
2019-06-01T06:40:52.917Z,17.86
2019-06-01T06:43:31.065Z,17.86
2019-06-01T06:45:54.746Z,17.92
2019-06-01T06:48:25.291Z,17.92
2019-06-01T06:50:55.392Z,17.96
2019-06-01T06:53:34.519Z,17.95
2019-06-01T06:55:57.772Z,17.94
2019-06-01T06:58:27.895Z,17.93
2019-06-01T07:00:58.315Z,17.97
2019-06-01T07:03:28.263Z,17.98
2019-06-01T07:05:58.548Z,18.00
2019-06-01T07:08:28.744Z,18.01
2019-06-01T07:10:58.761Z,18.01
2019-06-01T07:13:28.623Z,18.06
2019-06-01T07:15:58.854Z,18.13
2019-06-01T07:18:28.814Z,18.15
2019-06-01T07:20:58.945Z,18.12
2019-06-01T07:23:29.249Z,18.18
2019-06-01T07:25:59.600Z,18.20
2019-06-01T07:28:29.545Z,18.24
2019-06-01T07:30:59.411Z,18.27
2019-06-01T07:33:29.358Z,18.29
2019-06-01T07:35:59.157Z,18.33
2019-06-01T07:38:29.373Z,18.34
2019-06-01T07:40:59.171Z,18.38
2019-06-01T07:43:29.722Z,18.42
2019-06-01T07:45:59.667Z,18.52
2019-06-01T07:48:29.560Z,18.59
2019-06-01T07:50:59.434Z,18.64
2019-06-01T07:53:29.690Z,18.67
2019-06-01T07:55:59.642Z,18.69
2019-06-01T07:58:30.126Z,18.74
2019-06-01T08:01:00.008Z,18.75
2019-06-01T08:03:34.392Z,18.77
2019-06-01T08:06:01.523Z,18.81
2019-06-01T08:08:31.660Z,18.85
2019-06-01T08:11:01.537Z,18.86
2019-06-01T08:13:35.101Z,18.91
2019-06-01T08:16:03.541Z,18.92
2019-06-01T08:18:33.785Z,18.95
2019-06-01T08:21:04.055Z,18.96
2019-06-01T08:23:34.281Z,19.01
2019-06-01T08:26:04.660Z,19.04
2019-06-01T08:28:34.879Z,19.06
2019-06-01T08:31:04.917Z,19.08
2019-06-01T08:33:35.185Z,19.09
2019-06-01T08:36:05.238Z,19.12
2019-06-01T08:38:35.191Z,19.13
2019-06-01T08:41:05.426Z,19.12
2019-06-01T08:43:35.283Z,19.15
2019-06-01T08:46:05.304Z,19.14
2019-06-01T08:48:35.119Z,19.14
2019-06-01T08:51:05.426Z,19.22
2019-06-01T08:53:35.400Z,19.29
2019-06-01T08:56:05.660Z,19.35
2019-06-01T08:58:35.632Z,19.47
2019-06-01T09:01:06.003Z,19.47
2019-06-01T09:03:43.678Z,19.53
2019-06-01T09:06:07.631Z,19.56
2019-06-01T09:08:38.823Z,19.56
2019-06-01T09:11:08.778Z,19.65
2019-06-01T09:13:38.755Z,19.71
2019-06-01T09:16:08.789Z,19.74
2019-06-01T09:18:38.700Z,19.76
2019-06-01T09:21:08.753Z,19.79
2019-06-01T09:23:38.745Z,19.80
2019-06-01T09:26:08.978Z,19.85
2019-06-01T09:28:38.906Z,19.90
2019-06-01T09:31:08.848Z,19.97
2019-06-01T09:33:39.805Z,20.02
2019-06-01T09:36:09.796Z,20.06
2019-06-01T09:38:41.130Z,20.13
2019-06-01T09:41:11.211Z,20.16
2019-06-01T09:43:41.816Z,20.16
2019-06-01T09:46:12.114Z,20.22
2019-06-01T09:48:42.376Z,20.25
2019-06-01T09:51:12.315Z,20.25
2019-06-01T09:53:42.263Z,20.27
2019-06-01T09:56:12.557Z,20.32
2019-06-01T09:58:42.531Z,20.34
2019-06-01T10:01:12.461Z,20.39
2019-06-01T10:03:42.372Z,20.39
2019-06-01T10:06:14.219Z,20.48
2019-06-01T10:08:43.869Z,20.48
2019-06-01T10:11:13.818Z,20.58
2019-06-01T10:13:43.698Z,20.58
2019-06-01T10:16:13.917Z,20.60
2019-06-01T10:18:43.818Z,20.67
2019-06-01T10:21:14.019Z,20.70
2019-06-01T10:23:48.772Z,20.70
2019-06-01T10:26:16.893Z,20.79
2019-06-01T10:28:47.221Z,20.96
2019-06-01T10:31:17.371Z,20.96
2019-06-01T10:33:50.620Z,21.03
2019-06-01T10:36:21.293Z,21.10
2019-06-01T10:38:50.929Z,21.12
2019-06-01T10:41:20.839Z,21.26
2019-06-01T10:43:50.703Z,21.38
2019-06-01T10:46:20.616Z,21.49
2019-06-01T10:48:50.390Z,21.76
2019-06-01T10:51:20.565Z,21.76
2019-06-01T10:53:50.383Z,21.96
2019-06-01T10:56:21.267Z,22.13
2019-06-01T10:59:00.049Z,22.45
2019-06-01T11:01:22.718Z,22.45
2019-06-01T11:03:52.982Z,22.61
2019-06-01T11:06:36.192Z,22.77
2019-06-01T11:08:54.592Z,22.93
2019-06-01T11:11:24.452Z,23.04
2019-06-01T11:13:54.526Z,23.21
2019-06-01T11:16:24.412Z,23.34
2019-06-01T11:18:54.687Z,23.49
2019-06-01T11:21:24.627Z,23.62
2019-06-01T11:23:54.481Z,23.84
2019-06-01T11:26:24.689Z,23.96
2019-06-01T11:28:54.673Z,24.10
2019-06-01T11:31:25.438Z,24.21
2019-06-01T11:33:55.437Z,24.34
2019-06-01T11:36:25.775Z,24.48
2019-06-01T11:38:55.663Z,24.59
2019-06-01T11:41:25.629Z,24.68
2019-06-01T11:43:55.494Z,24.81
2019-06-01T11:46:25.747Z,24.90
2019-06-01T11:48:55.610Z,25.00
2019-06-01T11:51:25.549Z,25.14
2019-06-01T11:53:55.802Z,25.22
2019-06-01T11:56:25.773Z,25.32
2019-06-01T11:58:55.744Z,25.45
2019-06-01T12:01:46.018Z,25.57
2019-06-01T12:04:16.266Z,25.66
2019-06-01T12:06:46.675Z,25.71
2019-06-01T12:09:17.012Z,25.81
2019-06-01T12:11:46.964Z,25.92
2019-06-01T12:14:16.753Z,26.03
2019-06-01T12:16:50.690Z,26.20
2019-06-01T12:19:20.532Z,26.34
2019-06-01T12:21:50.772Z,26.42
2019-06-01T12:24:25.549Z,26.46
2019-06-01T12:26:52.256Z,26.50
2019-06-01T12:29:22.180Z,26.59
2019-06-01T12:31:52.853Z,26.62
2019-06-01T12:34:23.031Z,26.66
2019-06-01T12:36:53.113Z,26.74
2019-06-01T12:39:24.932Z,26.84
2019-06-01T12:41:54.789Z,26.89
2019-06-01T12:44:25.358Z,26.91
2019-06-01T12:46:55.263Z,26.92
2019-06-01T12:49:26.529Z,26.95
2019-06-01T12:51:56.465Z,27.02
2019-06-01T12:54:26.788Z,27.07
2019-06-01T12:56:56.725Z,27.14
2019-06-01T12:59:26.586Z,27.15
2019-06-01T13:01:56.615Z,27.22
2019-06-01T13:04:28.253Z,27.30
2019-06-01T13:06:59.689Z,27.40
2019-06-01T13:09:30.133Z,27.42
2019-06-01T13:12:00.053Z,27.42
2019-06-01T13:14:31.841Z,27.46
2019-06-01T13:17:07.546Z,27.50
2019-06-01T13:19:33.686Z,27.52
2019-06-01T13:22:03.732Z,27.62
2019-06-01T13:24:33.689Z,27.72
2019-06-01T13:27:03.655Z,27.80
2019-06-01T13:29:33.585Z,27.87
2019-06-01T13:32:03.904Z,27.89
2019-06-01T13:34:34.627Z,27.92
2019-06-01T13:37:04.839Z,28.00
2019-06-01T13:39:35.863Z,28.06
2019-06-01T13:42:06.131Z,28.13
2019-06-01T13:44:38.306Z,28.14
2019-06-01T13:47:11.335Z,28.18
2019-06-01T13:49:41.827Z,28.24
2019-06-01T13:52:12.090Z,28.28
2019-06-01T13:54:42.078Z,28.29
2019-06-01T13:57:12.018Z,28.37
2019-06-01T13:59:42.331Z,28.39
2019-06-01T14:02:12.844Z,28.43
2019-06-01T14:04:42.880Z,28.48
2019-06-01T14:07:12.825Z,28.59
2019-06-01T14:09:43.078Z,28.67
2019-06-01T14:12:13.436Z,28.78
2019-06-01T14:14:45.295Z,28.84
2019-06-01T14:17:21.553Z,28.86
2019-06-01T14:19:51.777Z,28.95
2019-06-01T14:22:21.784Z,28.98
2019-06-01T14:25:08.389Z,28.98
2019-06-01T14:27:23.322Z,28.97
2019-06-01T14:29:54.441Z,28.99
2019-06-01T14:32:24.390Z,29.02
2019-06-01T14:34:54.952Z,29.00
2019-06-01T14:37:24.894Z,29.00
2019-06-01T14:39:55.014Z,29.02
2019-06-01T14:42:25.083Z,29.06
2019-06-01T14:44:55.981Z,29.09
2019-06-01T14:47:25.988Z,29.17
2019-06-01T14:49:55.920Z,29.25
2019-06-01T14:52:25.792Z,29.32
2019-06-01T14:54:55.976Z,29.36
2019-06-01T14:57:25.770Z,29.41
2019-06-01T14:59:56.108Z,29.46
2019-06-01T15:02:26.055Z,29.38
2019-06-01T15:04:56.460Z,29.34
2019-06-01T15:07:27.699Z,29.33
2019-06-01T15:09:58.510Z,29.35
2019-06-01T15:12:28.396Z,29.37
2019-06-01T15:14:59.483Z,29.37
2019-06-01T15:17:29.843Z,29.38
2019-06-01T15:20:00.034Z,29.38
2019-06-01T15:22:30.124Z,29.37
2019-06-01T15:24:59.892Z,29.36
2019-06-01T15:27:30.055Z,29.37
2019-06-01T15:29:59.934Z,29.37
2019-06-01T15:32:29.794Z,29.36
2019-06-01T15:35:00.070Z,29.39
2019-06-01T15:37:30.399Z,29.42
2019-06-01T15:40:00.326Z,29.41
2019-06-01T15:42:30.181Z,29.42
2019-06-01T15:45:00.026Z,29.38
2019-06-01T15:47:29.971Z,29.36
2019-06-01T15:50:00.075Z,29.34
2019-06-01T15:52:30.174Z,29.30
2019-06-01T15:55:00.784Z,29.25
2019-06-01T15:57:31.534Z,29.18
2019-06-01T16:00:01.298Z,29.13
2019-06-01T16:02:31.437Z,29.08
2019-06-01T16:05:01.538Z,29.03
2019-06-01T16:07:31.463Z,28.97
2019-06-01T16:10:06.442Z,28.94
2019-06-01T16:12:34.641Z,28.88
2019-06-01T16:15:05.226Z,28.84
2019-06-01T16:17:37.021Z,28.79
2019-06-01T16:20:07.941Z,28.69
2019-06-01T16:22:38.130Z,28.63
2019-06-01T16:25:08.215Z,28.54
2019-06-01T16:27:38.159Z,28.48
2019-06-01T16:30:09.012Z,28.45
2019-06-01T16:32:39.833Z,28.42
2019-06-01T16:35:10.021Z,28.37
2019-06-01T16:37:40.493Z,28.38
2019-06-01T16:40:11.215Z,28.37
2019-06-01T16:42:43.094Z,28.36
2019-06-01T16:45:13.119Z,28.34
2019-06-01T16:47:43.040Z,28.34
2019-06-01T16:50:14.477Z,28.35
2019-06-01T16:52:44.789Z,28.34
2019-06-01T16:55:14.725Z,28.31
2019-06-01T16:57:44.741Z,28.26
2019-06-01T17:00:16.279Z,28.23
2019-06-01T17:02:46.193Z,28.19
2019-06-01T17:05:17.026Z,28.16
2019-06-01T17:07:46.926Z,28.14
2019-06-01T17:10:26.241Z,28.13
2019-06-01T17:12:50.002Z,28.07
2019-06-01T17:15:19.933Z,28.01
2019-06-01T17:17:49.882Z,27.97
2019-06-01T17:20:46.937Z,27.97
2019-06-01T17:23:27.394Z,27.94
2019-06-01T17:25:48.499Z,27.88
2019-06-01T17:28:18.483Z,27.88
2019-06-01T17:30:48.450Z,27.87
2019-06-01T17:33:19.839Z,27.90
2019-06-01T17:35:50.864Z,27.94
2019-06-01T17:38:20.808Z,27.95
2019-06-01T17:40:50.911Z,27.96
2019-06-01T17:43:21.174Z,27.98
2019-06-01T17:45:51.568Z,27.91
2019-06-01T17:48:26.930Z,27.82
2019-06-01T17:50:53.503Z,27.71
2019-06-01T17:53:23.438Z,27.61
2019-06-01T17:55:53.372Z,27.51
2019-06-01T17:58:23.338Z,27.40
2019-06-01T18:00:53.713Z,27.29
2019-06-01T18:03:23.661Z,27.18
2019-06-01T18:05:53.947Z,27.09
2019-06-01T18:08:23.900Z,27.03
2019-06-01T18:10:55.119Z,26.97
2019-06-01T18:13:26.086Z,26.89
2019-06-01T18:15:55.950Z,26.80
2019-06-01T18:18:25.888Z,26.72
2019-06-01T18:20:56.075Z,26.63
2019-06-01T18:23:26.109Z,26.55
2019-06-01T18:25:56.219Z,26.46
2019-06-01T18:28:26.143Z,26.39
2019-06-01T18:30:56.413Z,26.29
2019-06-01T18:33:26.446Z,26.21
2019-06-01T18:35:56.419Z,26.13
2019-06-01T18:38:26.275Z,26.05
2019-06-01T18:41:08.632Z,25.96
2019-06-01T18:43:28.025Z,25.90
2019-06-01T18:45:58.560Z,25.84
2019-06-01T18:48:28.495Z,25.77
2019-06-01T18:50:58.725Z,25.71
2019-06-01T18:53:28.647Z,25.63
2019-06-01T18:55:58.569Z,25.56
2019-06-01T18:58:28.599Z,25.49
2019-06-01T19:00:58.985Z,25.43
2019-06-01T19:03:29.579Z,25.37
2019-06-01T19:06:00.279Z,25.31
2019-06-01T19:08:31.187Z,25.24
2019-06-01T19:11:02.210Z,25.18
2019-06-01T19:13:32.454Z,25.11
2019-06-01T19:16:02.511Z,25.05
2019-06-01T19:18:32.471Z,25.01
2019-06-01T19:21:02.448Z,24.95
2019-06-01T19:23:32.279Z,24.89
2019-06-01T19:26:02.148Z,24.84
2019-06-01T19:28:32.370Z,24.80
2019-06-01T19:31:02.231Z,24.73
2019-06-01T19:33:33.023Z,24.64
2019-06-01T19:36:04.734Z,24.57
2019-06-01T19:38:35.480Z,24.51
2019-06-01T19:41:07.283Z,24.47
2019-06-01T19:43:37.403Z,24.44
2019-06-01T19:46:07.670Z,24.38
2019-06-01T19:48:38.899Z,24.35
2019-06-01T19:51:10.572Z,24.26
2019-06-01T19:53:40.767Z,24.23
2019-06-01T19:56:10.830Z,24.19
2019-06-01T19:58:40.726Z,24.14
2019-06-01T20:01:12.253Z,24.09
2019-06-01T20:03:42.604Z,24.02
2019-06-01T20:06:12.863Z,23.96
2019-06-01T20:08:43.336Z,23.92
2019-06-01T20:11:13.628Z,23.87
2019-06-01T20:13:43.788Z,23.82
2019-06-01T20:16:14.623Z,23.79
2019-06-01T20:18:45.529Z,23.75
2019-06-01T20:21:15.846Z,23.71
2019-06-01T20:23:45.822Z,23.69
2019-06-01T20:26:15.705Z,23.64
2019-06-01T20:28:45.713Z,23.60
2019-06-01T20:31:15.840Z,23.56
2019-06-01T20:33:45.729Z,23.52
2019-06-01T20:36:16.208Z,23.48
2019-06-01T20:38:46.078Z,23.44
2019-06-01T20:41:16.903Z,23.40
2019-06-01T20:43:46.868Z,23.37
2019-06-01T20:46:16.864Z,23.34
2019-06-01T20:48:46.881Z,23.30
2019-06-01T20:51:17.085Z,23.27
2019-06-01T20:53:46.992Z,23.23
2019-06-01T20:56:17.368Z,23.18
2019-06-01T20:58:47.467Z,23.15
2019-06-01T21:01:19.785Z,23.12
2019-06-01T21:03:50.652Z,23.09
2019-06-01T21:06:21.204Z,23.05
2019-06-01T21:08:52.402Z,23.02
2019-06-01T21:11:22.602Z,23.00
2019-06-01T21:13:52.881Z,22.96
2019-06-01T21:16:22.911Z,22.91
2019-06-01T21:18:53.241Z,22.86
2019-06-01T21:21:23.292Z,22.80
2019-06-01T21:23:56.746Z,22.76
2019-06-01T21:26:46.182Z,22.73
2019-06-01T21:29:18.726Z,22.69
2019-06-01T21:31:49.501Z,22.66
2019-06-01T21:34:20.925Z,22.63
2019-06-01T21:36:51.931Z,22.62
2019-06-01T21:39:21.929Z,22.60
2019-06-01T21:41:51.908Z,22.56
2019-06-01T21:44:40.985Z,22.50
2019-06-01T21:47:11.047Z,22.45
2019-06-01T21:49:41.075Z,22.40
2019-06-01T21:52:11.105Z,22.36
2019-06-01T21:54:42.291Z,22.33
2019-06-01T21:57:12.978Z,22.23
2019-06-01T21:59:43.302Z,22.23
2019-06-01T22:02:13.368Z,22.15
2019-06-01T22:04:43.495Z,22.19
2019-06-01T22:07:13.409Z,22.17
2019-06-01T22:09:43.556Z,22.14
2019-06-01T22:12:13.522Z,22.08
2019-06-01T22:14:46.325Z,22.05
2019-06-01T22:17:17.497Z,22.03
2019-06-01T22:19:47.785Z,21.99
2019-06-01T22:22:17.816Z,21.91
2019-06-01T22:24:47.704Z,21.91
2019-06-01T22:27:18.116Z,21.87
2019-06-01T22:29:48.260Z,21.82
2019-06-01T22:32:22.980Z,21.78
2019-06-01T22:34:51.060Z,21.68
2019-06-01T22:37:21.668Z,21.68
2019-06-01T22:39:51.782Z,21.72
2019-06-01T22:42:24.315Z,21.71
2019-06-01T22:44:54.398Z,21.63
2019-06-01T22:47:24.623Z,21.63
2019-06-01T22:49:54.873Z,21.62
2019-06-01T22:52:25.032Z,21.59
2019-06-01T22:54:54.819Z,21.56
2019-06-01T22:57:26.232Z,21.41
2019-06-01T22:59:56.524Z,21.41
2019-06-01T23:02:27.762Z,21.43
2019-06-01T23:04:57.786Z,21.34
2019-06-01T23:07:27.728Z,21.29
2019-06-01T23:09:58.027Z,21.23
2019-06-01T23:12:27.960Z,21.19
2019-06-01T23:14:58.559Z,21.14
2019-06-01T23:17:29.795Z,21.11
2019-06-01T23:19:59.744Z,21.06
2019-06-01T23:22:30.126Z,21.01
2019-06-01T23:25:00.403Z,20.98
2019-06-01T23:27:32.525Z,20.94
2019-06-01T23:30:02.984Z,20.89
2019-06-01T23:32:33.216Z,20.91
2019-06-01T23:35:04.101Z,20.86
2019-06-01T23:37:34.084Z,20.83
2019-06-01T23:40:04.576Z,20.79
2019-06-01T23:42:34.553Z,20.73
2019-06-01T23:45:05.025Z,20.73
2019-06-01T23:47:34.996Z,20.70
2019-06-01T23:50:05.284Z,20.67
2019-06-01T23:52:35.268Z,20.68
2019-06-01T23:55:06.090Z,20.67
2019-06-01T23:57:36.668Z,20.66
